Time,TemperatureF,DewpointF,PressureIn,WindDirection,WindDirectionDegrees,WindSpeedMPH,WindSpeedGustMPH,Humidity,HourlyPrecipIn,Conditions,Clouds,dailyrainin,SoftwareType,DateUTC
2013-08-22 00:00:00,66.1,36.0,29.90,WSW,248,4.5,4.5,33,0.00,,,0.00,WUHU216HW,2013-08-22 06:00:00,
2013-08-22 00:05:00,65.5,35.6,29.88,West,270,7.2,7.4,33,0.00,,,0.00,WUHU216HW,2013-08-22 06:05:00,
2013-08-22 00:09:00,65.3,37.5,29.68,West,270,5.8,6.5,36,0.00,,,0.00,WUHU216HW,2013-08-22 06:09:00,
2013-08-22 00:10:00,65.3,37.5,29.68,West,270,5.8,7.6,36,0.00,,,0.00,WUHU216HW,2013-08-22 06:10:00,
2013-08-22 00:11:00,65.3,37.5,29.68,West,270,5.8,7.6,36,0.00,,,0.00,WUHU216HW,2013-08-22 06:11:00,
2013-08-22 00:15:00,65.3,37.5,29.68,West,270,5.8,7.6,36,0.00,,,0.00,WUHU216HW,2013-08-22 06:15:00,
2013-08-22 00:16:00,65.3,37.5,29.68,West,270,5.8,7.6,36,0.00,,,0.00,WUHU216HW,2013-08-22 06:16:00,
2013-08-22 01:00:00,63.7,37.5,29.89,West,270,1.3,1.3,38,0.00,,,0.00,WUHU216HW,2013-08-22 07:00:00,
2013-08-22 01:02:00,63.7,38.3,29.88,WSW,248,1.6,1.6,39,0.00,,,0.00,WUHU216HW,2013-08-22 07:02:00,
2013-08-22 01:05:00,63.7,38.3,29.88,WSW,248,1.6,1.6,39,0.00,,,0.00,WUHU216HW,2013-08-22 07:05:00,
2013-08-22 01:10:00,63.7,38.3,29.88,WSW,248,1.6,1.6,39,0.00,,,0.00,WUHU216HW,2013-08-22 07:10:00,
2013-08-22 01:11:00,63.7,38.3,29.88,WSW,248,1.6,1.6,39,0.00,,,0.00,WUHU216HW,2013-08-22 07:11:00,
2013-08-22 02:00:00,64.8,40.0,29.89,North,0,0.7,0.7,40,0.00,,,0.00,WUHU216HW,2013-08-22 08:00:00,
2013-08-22 02:01:00,64.8,39.3,29.89,North,0,2.2,2.2,39,0.00,,,0.00,WUHU216HW,2013-08-22 08:01:00,
2013-08-22 02:03:00,64.8,39.3,29.88,North,0,1.1,1.1,39,0.00,,,0.00,WUHU216HW,2013-08-22 08:03:00,
2013-08-22 02:05:00,64.8,39.3,29.88,North,0,1.1,2.2,39,0.00,,,0.00,WUHU216HW,2013-08-22 08:05:00,
2013-08-22 02:06:00,64.8,39.3,29.88,North,0,1.1,2.2,39,0.00,,,0.00,WUHU216HW,2013-08-22 08:06:00,
2013-08-22 02:10:00,64.8,39.3,29.88,North,0,1.1,2.2,39,0.00,,,0.00,WUHU216HW,2013-08-22 08:10:00,
2013-08-22 02:11:00,64.8,39.3,29.88,North,0,1.1,2.2,39,0.00,,,0.00,WUHU216HW,2013-08-22 08:11:00,
2013-08-22 03:00:00,63.5,37.4,29.90,NW,315,3.4,3.4,38,0.00,,,0.00,WUHU216HW,2013-08-22 09:00:00,
2013-08-22 03:05:00,64.1,36.4,29.89,North,0,2.5,6.0,36,0.00,,,0.00,WUHU216HW,2013-08-22 09:05:00,
2013-08-22 03:06:00,64.3,36.6,29.89,NNW,338,2.5,6.0,36,0.00,,,0.00,WUHU216HW,2013-08-22 09:06:00,
2013-08-22 03:10:00,64.3,36.6,29.89,NNW,338,2.5,6.0,36,0.00,,,0.00,WUHU216HW,2013-08-22 09:10:00,
2013-08-22 03:11:00,64.3,36.6,29.89,NNW,338,2.5,6.0,36,0.00,,,0.00,WUHU216HW,2013-08-22 09:11:00,
2013-08-22 04:00:00,59.9,38.4,29.90,West,270,2.5,2.5,45,0.00,,,0.00,WUHU216HW,2013-08-22 10:00:00,
2013-08-22 04:04:00,59.9,38.4,29.88,West,270,4.0,4.0,45,0.00,,,0.00,WUHU216HW,2013-08-22 10:04:00,
2013-08-22 04:05:00,59.9,38.4,29.88,West,270,4.0,4.0,45,0.00,,,0.00,WUHU216HW,2013-08-22 10:05:00,
2013-08-22 04:10:00,59.9,38.4,29.88,West,270,4.0,4.0,45,0.00,,,0.00,WUHU216HW,2013-08-22 10:10:00,
2013-08-22 05:00:00,57.8,38.8,29.89,WSW,248,4.0,4.0,49,0.00,,,0.00,WUHU216HW,2013-08-22 11:00:00,
2013-08-22 05:01:00,57.8,38.8,29.88,WSW,248,4.0,4.0,49,0.00,,,0.00,WUHU216HW,2013-08-22 11:01:00,
2013-08-22 05:02:00,57.6,38.6,29.88,WSW,248,3.4,4.3,49,0.00,,,0.00,WUHU216HW,2013-08-22 11:02:00,
2013-08-22 05:03:00,57.6,38.6,29.88,West,270,3.8,4.3,49,0.00,,,0.00,WUHU216HW,2013-08-22 11:03:00,
2013-08-22 05:04:00,57.6,38.6,29.88,West,270,3.8,4.3,49,0.00,,,0.00,WUHU216HW,2013-08-22 11:04:00,
2013-08-22 05:06:00,57.6,38.6,29.78,West,270,3.8,4.3,49,0.00,,,0.00,WUHU216HW,2013-08-22 11:06:00,
2013-08-22 05:07:00,57.4,38.9,29.86,WSW,248,3.4,4.3,50,0.00,,,0.00,WUHU216HW,2013-08-22 11:07:00,
2013-08-22 05:08:00,57.4,39.1,29.63,WSW,248,3.4,4.3,50,0.00,,,0.00,WUHU216HW,2013-08-22 11:08:00,
2013-08-22 05:09:00,57.4,39.1,29.69,WSW,248,2.9,4.3,50,0.00,,,0.00,WUHU216HW,2013-08-22 11:09:00,
2013-08-22 06:00:00,57.1,40.6,29.89,WSW,248,5.1,5.1,54,0.00,,,0.00,WUHU216HW,2013-08-22 12:00:00,
2013-08-22 06:01:00,57.1,40.6,29.88,WSW,248,5.1,5.1,54,0.00,,,0.00,WUHU216HW,2013-08-22 12:01:00,
2013-08-22 06:02:00,57.1,40.6,29.88,WSW,248,5.1,5.1,54,0.00,,,0.00,WUHU216HW,2013-08-22 12:02:00,
2013-08-22 06:03:00,57.1,41.0,29.87,WSW,248,4.3,5.1,55,0.00,,,0.00,WUHU216HW,2013-08-22 12:03:00,
2013-08-22 06:04:00,57.1,40.6,29.87,WSW,248,4.3,5.1,54,0.00,,,0.00,WUHU216HW,2013-08-22 12:04:00,
2013-08-22 06:06:00,57.1,40.7,29.88,WSW,248,4.0,5.1,54,0.00,,,0.00,WUHU216HW,2013-08-22 12:06:00,
2013-08-22 07:00:00,56.9,40.9,29.89,WSW,248,3.1,3.1,55,0.00,,,0.00,WUHU216HW,2013-08-22 13:00:00,
2013-08-22 07:01:00,56.9,40.9,29.89,WSW,248,3.4,3.4,55,0.00,,,0.00,WUHU216HW,2013-08-22 13:01:00,
2013-08-22 07:05:00,56.9,40.5,29.85,WSW,248,4.5,4.5,54,0.00,,,0.00,WUHU216HW,2013-08-22 13:05:00,
2013-08-22 07:06:00,56.9,41.0,29.85,WSW,248,4.7,4.7,55,0.00,,,0.00,WUHU216HW,2013-08-22 13:06:00,
2013-08-22 07:10:00,56.9,40.9,29.79,SW,225,4.0,4.7,55,0.00,,,0.00,WUHU216HW,2013-08-22 13:10:00,
2013-08-22 07:11:00,56.9,40.9,29.79,SW,225,4.0,4.7,55,0.00,,,0.00,WUHU216HW,2013-08-22 13:11:00,
2013-08-22 07:15:00,56.9,40.9,29.79,SW,225,4.0,4.7,55,0.00,,,0.00,WUHU216HW,2013-08-22 13:15:00,
2013-08-22 07:16:00,56.9,40.9,29.79,SW,225,4.0,4.5,55,0.00,,,0.00,WUHU216HW,2013-08-22 13:16:00,
2013-08-22 08:00:00,60.5,45.6,29.89,SSE,158,1.8,1.8,58,0.00,,,0.00,WUHU216HW,2013-08-22 14:00:00,
2013-08-22 08:05:00,60.8,46.5,29.85,SE,135,0.4,1.8,59,0.00,,,0.00,WUHU216HW,2013-08-22 14:05:00,
2013-08-22 08:10:00,61.4,47.0,29.62,SE,135,1.6,2.0,59,0.00,,,0.00,WUHU216HW,2013-08-22 14:10:00,
2013-08-22 08:11:00,61.4,47.0,29.62,SE,135,1.6,2.0,59,0.00,,,0.00,WUHU216HW,2013-08-22 14:11:00,
2013-08-22 08:15:00,61.4,47.0,29.62,ESE,113,2.2,2.2,59,0.00,,,0.00,WUHU216HW,2013-08-22 14:15:00,
2013-08-22 08:16:00,61.4,47.0,29.62,ESE,113,2.2,2.2,59,0.00,,,0.00,WUHU216HW,2013-08-22 14:16:00,
2013-08-22 09:00:00,65.5,47.4,29.89,SSE,158,3.4,3.4,52,0.00,,,0.00,WUHU216HW,2013-08-22 15:00:00,
2013-08-22 09:05:00,66.1,47.4,29.74,ESE,113,2.2,4.3,51,0.00,,,0.00,WUHU216HW,2013-08-22 15:05:00,
2013-08-22 09:06:00,66.1,47.4,29.74,East,90,2.7,4.3,51,0.00,,,0.00,WUHU216HW,2013-08-22 15:06:00,
2013-08-22 09:10:00,66.2,47.6,29.81,ESE,113,4.0,4.3,51,0.00,,,0.00,WUHU216HW,2013-08-22 15:10:00,
2013-08-22 09:11:00,66.2,47.6,29.81,ESE,113,4.0,4.3,51,0.00,,,0.00,WUHU216HW,2013-08-22 15:11:00,
2013-08-22 10:00:00,72.0,47.6,29.90,SSW,203,3.1,3.1,42,0.00,,,0.00,WUHU216HW,2013-08-22 16:00:00,
2013-08-22 10:05:00,72.7,47.6,29.64,SE,135,0.9,3.1,41,0.00,,,0.00,WUHU216HW,2013-08-22 16:05:00,
2013-08-22 10:06:00,72.7,47.6,29.64,SSE,158,0.2,3.1,41,0.00,,,0.00,WUHU216HW,2013-08-22 16:06:00,
2013-08-22 10:07:00,73.1,48.0,29.61,ENE,68,1.3,2.0,41,0.00,,,0.00,WUHU216HW,2013-08-22 16:07:00,
2013-08-22 10:10:00,73.1,48.0,29.61,ENE,68,1.3,3.1,41,0.00,,,0.00,WUHU216HW,2013-08-22 16:10:00,
2013-08-22 10:11:00,73.1,48.0,29.61,ENE,68,1.3,2.0,41,0.00,,,0.00,WUHU216HW,2013-08-22 16:11:00,
2013-08-22 10:15:00,73.1,48.0,29.61,ENE,68,1.3,2.0,41,0.00,,,0.00,WUHU216HW,2013-08-22 16:15:00,
2013-08-22 10:16:00,73.1,48.0,29.61,ENE,68,1.3,2.0,41,0.00,,,0.00,WUHU216HW,2013-08-22 16:16:00,
2013-08-22 11:00:00,75.8,46.0,29.88,SSW,203,3.4,3.4,35,0.00,,,0.00,WUHU216HW,2013-08-22 17:00:00,
2013-08-22 11:01:00,75.8,46.0,29.88,SE,135,3.6,3.6,35,0.00,,,0.00,WUHU216HW,2013-08-22 17:01:00,
2013-08-22 11:05:00,76.5,45.9,29.57,SE,135,1.1,5.8,34,0.00,,,0.00,WUHU216HW,2013-08-22 17:05:00,
2013-08-22 11:06:00,76.7,46.8,29.57,SE,135,1.1,5.8,35,0.00,,,0.00,WUHU216HW,2013-08-22 17:06:00,
2013-08-22 11:10:00,76.7,46.1,29.61,SE,135,2.5,5.8,34,0.00,,,0.00,WUHU216HW,2013-08-22 17:10:00,
2013-08-22 11:11:00,76.7,46.1,29.61,SE,135,2.5,5.8,34,0.00,,,0.00,WUHU216HW,2013-08-22 17:11:00,
2013-08-22 11:16:00,76.7,46.1,29.61,SE,135,2.5,2.5,34,0.00,,,0.00,WUHU216HW,2013-08-22 17:16:00,
2013-08-22 12:00:00,78.7,47.0,29.86,ENE,68,1.8,1.8,33,0.00,,,0.00,WUHU216HW,2013-08-22 18:00:00,
2013-08-22 12:05:00,79.2,47.4,29.52,ESE,113,4.0,4.0,33,0.00,,,0.00,WUHU216HW,2013-08-22 18:05:00,
2013-08-22 12:06:00,79.2,47.4,29.52,ESE,113,4.0,4.0,33,0.00,,,0.00,WUHU216HW,2013-08-22 18:06:00,
2013-08-22 12:08:00,79.9,46.5,29.33,ENE,68,4.0,4.0,31,0.00,,,0.00,WUHU216HW,2013-08-22 18:08:00,
2013-08-22 12:10:00,79.9,46.5,29.33,ENE,68,4.0,4.0,31,0.00,,,0.00,WUHU216HW,2013-08-22 18:10:00,
2013-08-22 12:11:00,79.9,46.5,29.33,ENE,68,4.0,4.0,31,0.00,,,0.00,WUHU216HW,2013-08-22 18:11:00,
2013-08-22 12:12:00,79.9,46.5,29.33,ENE,68,4.0,4.0,31,0.00,,,0.00,WUHU216HW,2013-08-22 18:12:00,
2013-08-22 12:15:00,79.9,46.5,29.33,ENE,68,4.0,4.0,31,0.00,,,0.00,WUHU216HW,2013-08-22 18:15:00,
2013-08-22 12:16:00,79.9,46.5,29.33,ENE,68,4.0,4.0,31,0.00,,,0.00,WUHU216HW,2013-08-22 18:16:00,
2013-08-22 12:17:00,79.9,46.5,29.33,ENE,68,4.0,4.0,31,0.00,,,0.00,WUHU216HW,2013-08-22 18:17:00,
2013-08-22 13:00:00,86.4,47.1,29.83,SSE,158,4.7,4.7,26,0.00,,,0.00,WUHU216HW,2013-08-22 19:00:00,
2013-08-22 13:01:00,86.4,47.1,29.83,SSE,158,4.5,5.1,26,0.00,,,0.00,WUHU216HW,2013-08-22 19:01:00,
2013-08-22 13:05:00,86.6,48.5,29.41,SSW,203,2.7,5.1,27,0.00,,,0.00,WUHU216HW,2013-08-22 19:05:00,
2013-08-22 13:06:00,86.8,48.7,29.41,South,180,2.7,5.1,27,0.00,,,0.00,WUHU216HW,2013-08-22 19:06:00,
2013-08-22 13:07:00,86.8,47.4,29.35,SSE,158,5.4,5.4,26,0.00,,,0.00,WUHU216HW,2013-08-22 19:07:00,
2013-08-22 13:10:00,86.8,47.4,29.35,SSE,158,5.4,5.4,26,0.00,,,0.00,WUHU216HW,2013-08-22 19:10:00,
2013-08-22 13:11:00,86.8,47.4,29.35,SSE,158,5.4,5.4,26,0.00,,,0.00,WUHU216HW,2013-08-22 19:11:00,
2013-08-22 13:15:00,86.8,47.4,29.35,SSE,158,5.4,5.4,26,0.00,,,0.00,WUHU216HW,2013-08-22 19:15:00,
2013-08-22 13:16:00,86.8,47.4,29.35,SSE,158,5.4,5.4,26,0.00,,,0.00,WUHU216HW,2013-08-22 19:16:00,
2013-08-22 14:00:00,85.9,45.5,29.81,North,0,5.4,5.4,25,0.00,,,0.00,WUHU216HW,2013-08-22 20:00:00,
2013-08-22 14:01:00,85.7,46.5,29.81,North,0,7.8,7.8,26,0.00,,,0.00,WUHU216HW,2013-08-22 20:01:00,
2013-08-22 14:02:00,85.5,46.6,29.79,North,0,8.3,8.3,26,0.00,,,0.00,WUHU216HW,2013-08-22 20:02:00,
2013-08-22 14:05:00,85.5,46.6,29.79,North,0,8.3,8.3,26,0.00,,,0.00,WUHU216HW,2013-08-22 20:05:00,
2013-08-22 14:06:00,85.5,46.6,29.79,North,0,8.3,8.3,26,0.00,,,0.00,WUHU216HW,2013-08-22 20:06:00,
2013-08-22 14:10:00,85.5,46.6,29.79,North,0,8.3,8.3,26,0.00,,,0.00,WUHU216HW,2013-08-22 20:10:00,
2013-08-22 14:11:00,85.5,46.6,29.79,North,0,8.3,8.3,26,0.00,,,0.00,WUHU216HW,2013-08-22 20:11:00,
2013-08-22 15:00:00,84.6,47.7,29.79,NW,315,2.0,2.0,28,0.00,,,0.00,WUHU216HW,2013-08-22 21:00:00,
2013-08-22 15:01:00,84.8,47.9,29.79,NW,315,6.5,6.5,28,0.00,,,0.00,WUHU216HW,2013-08-22 21:01:00,
2013-08-22 15:02:00,85.0,48.1,29.76,WNW,293,3.4,3.4,28,0.00,,,0.00,WUHU216HW,2013-08-22 21:02:00,
2013-08-22 15:05:00,85.0,48.1,29.76,WNW,293,3.4,6.9,28,0.00,,,0.00,WUHU216HW,2013-08-22 21:05:00,
2013-08-22 15:06:00,85.0,48.1,29.76,WNW,293,3.4,6.9,28,0.00,,,0.00,WUHU216HW,2013-08-22 21:06:00,
2013-08-22 15:10:00,85.0,48.1,29.76,WNW,293,3.4,6.9,28,0.00,,,0.00,WUHU216HW,2013-08-22 21:10:00,
2013-08-22 15:11:00,85.0,48.1,29.76,WNW,293,3.4,6.9,28,0.00,,,0.00,WUHU216HW,2013-08-22 21:11:00,
2013-08-22 16:00:00,90.4,47.3,29.76,ENE,68,6.3,6.3,23,0.00,,,0.00,WUHU216HW,2013-08-22 22:00:00,
2013-08-22 16:01:00,90.4,47.3,29.76,NE,45,4.3,6.3,23,0.00,,,0.00,WUHU216HW,2013-08-22 22:01:00,
2013-08-22 16:05:00,90.0,46.9,29.49,East,90,5.6,8.1,23,0.00,,,0.00,WUHU216HW,2013-08-22 22:05:00,
2013-08-22 16:06:00,90.0,46.9,29.49,East,90,5.6,8.1,23,0.00,,,0.00,WUHU216HW,2013-08-22 22:06:00,
2013-08-22 16:07:00,89.5,47.5,29.33,NNE,23,8.5,8.5,24,0.00,,,0.00,WUHU216HW,2013-08-22 22:07:00,
2013-08-22 16:10:00,89.5,47.5,29.33,NNE,23,8.5,8.5,24,0.00,,,0.00,WUHU216HW,2013-08-22 22:10:00,
2013-08-22 16:11:00,89.5,47.5,29.33,NNE,23,8.5,8.5,24,0.00,,,0.00,WUHU216HW,2013-08-22 22:11:00,
2013-08-22 16:12:00,89.5,47.5,29.33,NNE,23,8.5,8.5,24,0.00,,,0.00,WUHU216HW,2013-08-22 22:12:00,
2013-08-22 16:15:00,89.5,47.5,29.33,NNE,23,8.5,8.5,24,0.00,,,0.00,WUHU216HW,2013-08-22 22:15:00,
2013-08-22 16:16:00,89.5,47.5,29.33,NNE,23,8.5,8.5,24,0.00,,,0.00,WUHU216HW,2013-08-22 22:16:00,
2013-08-22 17:00:00,85.7,46.5,29.74,NNW,338,1.8,1.8,26,0.00,,,0.00,WUHU216HW,2013-08-22 23:00:00,
2013-08-22 17:05:00,85.1,48.2,29.43,NNW,338,4.9,4.9,28,0.00,,,0.00,WUHU216HW,2013-08-22 23:05:00,
2013-08-22 17:06:00,85.1,48.2,29.43,NNW,338,4.9,4.9,28,0.00,,,0.00,WUHU216HW,2013-08-22 23:06:00,
2013-08-22 17:10:00,84.8,47.9,29.39,NW,315,6.7,6.7,28,0.00,,,0.00,WUHU216HW,2013-08-22 23:10:00,
2013-08-22 17:11:00,84.8,47.9,29.39,NW,315,6.7,6.7,28,0.00,,,0.00,WUHU216HW,2013-08-22 23:11:00,
2013-08-22 17:58:00,73.6,54.8,29.75,West,270,45.4,45.4,52,0.00,,,0.00,WUHU216HW,2013-08-22 23:58:00,
2013-08-22 18:03:00,71.5,54.4,29.75,WSW,248,43.2,45.4,55,0.01,,,0.01,WUHU216HW,2013-08-23 00:03:00,
2013-08-22 18:04:00,71.5,54.4,29.75,WSW,248,43.2,45.4,55,0.01,,,0.01,WUHU216HW,2013-08-23 00:04:00,
2013-08-22 19:00:00,69.1,52.8,29.76,SW,225,7.6,7.6,56,0.10,,,0.01,WUHU216HW,2013-08-23 01:00:00,
2013-08-22 19:05:00,69.8,53.0,29.69,SSW,203,5.4,11.4,55,0.06,,,0.11,WUHU216HW,2013-08-23 01:05:00,
2013-08-22 19:06:00,69.8,53.0,29.69,SSW,203,5.4,11.4,55,0.06,,,0.11,WUHU216HW,2013-08-23 01:06:00,
2013-08-22 19:07:00,70.0,53.2,29.27,SSW,203,4.0,11.4,55,0.06,,,0.11,WUHU216HW,2013-08-23 01:07:00,
2013-08-22 19:10:00,70.0,53.2,29.27,SSW,203,4.0,11.4,55,0.06,,,0.11,WUHU216HW,2013-08-23 01:10:00,
2013-08-22 19:11:00,70.0,53.2,29.27,SSW,203,4.0,11.4,55,0.06,,,0.11,WUHU216HW,2013-08-23 01:11:00,
2013-08-22 19:12:00,70.0,53.2,29.27,SSW,203,4.0,9.8,55,0.06,,,0.11,WUHU216HW,2013-08-23 01:12:00,
2013-08-22 19:15:00,70.0,53.2,29.27,SSW,203,4.0,4.0,55,0.06,,,0.11,WUHU216HW,2013-08-23 01:15:00,
2013-08-22 19:16:00,70.0,53.2,29.27,SSW,203,4.0,4.0,55,0.06,,,0.11,WUHU216HW,2013-08-23 01:16:00,
2013-08-22 20:00:00,70.2,53.7,29.74,SW,225,6.3,6.3,56,0.00,,,0.11,WUHU216HW,2013-08-23 02:00:00,
2013-08-22 20:04:00,70.2,53.3,29.37,SW,225,4.7,4.7,55,0.00,,,0.11,WUHU216HW,2013-08-23 02:04:00,
2013-08-22 20:05:00,70.2,53.3,29.37,SW,225,4.7,6.3,55,0.00,,,0.11,WUHU216HW,2013-08-23 02:05:00,
2013-08-22 20:06:00,70.2,53.3,29.37,SW,225,4.7,6.3,55,0.00,,,0.11,WUHU216HW,2013-08-23 02:06:00,
2013-08-22 20:10:00,70.2,53.3,29.37,SW,225,4.7,5.4,55,0.00,,,0.11,WUHU216HW,2013-08-23 02:10:00,
2013-08-22 20:11:00,70.2,53.3,29.37,SW,225,4.7,5.4,55,0.00,,,0.11,WUHU216HW,2013-08-23 02:11:00,
2013-08-22 21:00:00,67.1,53.3,29.74,WSW,248,11.4,11.4,61,0.00,,,0.11,WUHU216HW,2013-08-23 03:00:00,
2013-08-22 21:01:00,67.1,53.3,29.71,West,270,11.9,11.9,61,0.00,,,0.11,WUHU216HW,2013-08-23 03:01:00,
2013-08-22 21:05:00,67.1,52.8,29.71,WSW,248,12.3,12.3,60,0.00,,,0.11,WUHU216HW,2013-08-23 03:05:00,
2013-08-22 21:06:00,67.1,52.8,29.71,WSW,248,12.3,12.3,60,0.00,,,0.11,WUHU216HW,2013-08-23 03:06:00,
2013-08-22 21:10:00,67.1,52.8,29.71,WSW,248,12.3,12.3,60,0.00,,,0.11,WUHU216HW,2013-08-23 03:10:00,
2013-08-22 21:11:00,67.1,52.8,29.71,WSW,248,12.3,12.3,60,0.00,,,0.11,WUHU216HW,2013-08-23 03:11:00,
2013-08-22 22:00:00,68.8,50.0,29.76,ESE,113,2.5,2.5,51,0.00,,,0.11,WUHU216HW,2013-08-23 04:00:00,
2013-08-22 22:01:00,68.8,50.0,29.76,ESE,113,2.2,2.5,51,0.00,,,0.11,WUHU216HW,2013-08-23 04:01:00,
2013-08-22 22:04:00,68.9,50.1,29.50,West,270,3.1,3.1,51,0.00,,,0.11,WUHU216HW,2013-08-23 04:04:00,
2013-08-22 22:06:00,68.9,50.1,29.50,West,270,3.1,3.1,51,0.00,,,0.11,WUHU216HW,2013-08-23 04:06:00,
2013-08-22 22:11:00,68.9,50.1,29.50,West,270,3.1,3.1,51,0.00,,,0.11,WUHU216HW,2013-08-23 04:11:00,
2013-08-22 23:00:00,68.6,52.2,29.76,WSW,248,8.7,8.7,56,0.00,,,0.11,WUHU216HW,2013-08-23 05:00:00,
2013-08-22 23:01:00,68.4,52.0,29.76,West,270,8.9,9.2,56,0.00,,,0.11,WUHU216HW,2013-08-23 05:01:00,
2013-08-22 23:03:00,68.6,52.8,29.44,West,270,7.4,8.5,57,0.00,,,0.11,WUHU216HW,2013-08-23 05:03:00,
2013-08-22 23:05:00,68.6,52.8,29.44,West,270,7.4,10.3,57,0.00,,,0.11,WUHU216HW,2013-08-23 05:05:00,
2013-08-22 23:06:00,68.6,52.8,29.44,West,270,7.4,10.3,57,0.00,,,0.11,WUHU216HW,2013-08-23 05:06:00,
2013-08-22 23:10:00,68.6,52.8,29.44,West,270,7.4,10.3,57,0.00,,,0.11,WUHU216HW,2013-08-23 05:10:00,
2013-08-22 23:11:00,68.6,52.8,29.44,West,270,7.4,10.3,57,0.00,,,0.11,WUHU216HW,2013-08-23 05:11:00,